sensor_id;sensor_type;location;lat;lon;timestamp;pressure;altitude;pressure_sealevel;temperature;humidity
30554;BME280;17335;50.720;7.452;2022-09-09T00:00:48;98694.38;;;15.65;100.00
30554;BME280;17335;50.720;7.452;2022-09-09T00:03:25;98689.88;;;15.72;100.00
30554;BME280;17335;50.720;7.452;2022-09-09T00:08:45;98679.69;;;15.74;100.00
30554;BME280;17335;50.720;7.452;2022-09-09T00:11:21;98676.16;;;15.74;100.00
30554;BME280;17335;50.720;7.452;2022-09-09T00:13:58;98671.03;;;15.79;100.00
30554;BME280;17335;50.720;7.452;2022-09-09T00:16:32;98673.63;;;15.72;100.00
30554;BME280;17335;50.720;7.452;2022-09-09T00:21:39;98672.47;;;15.75;100.00
30554;BME280;17335;50.720;7.452;2022-09-09T00:24:23;98679.44;;;15.69;100.00
30554;BME280;17335;50.720;7.452;2022-09-09T00:26:59;98677.97;;;15.67;100.00
30554;BME280;17335;50.720;7.452;2022-09-09T00:29:43;98684.41;;;15.66;100.00
30554;BME280;17335;50.720;7.452;2022-09-09T00:32:15;98689.75;;;15.59;100.00
30554;BME280;17335;50.720;7.452;2022-09-09T00:34:52;98684.03;;;15.47;100.00
30554;BME280;17335;50.720;7.452;2022-09-09T00:37:22;98691.41;;;15.38;100.00
30554;BME280;17335;50.720;7.452;2022-09-09T00:39:53;98685.34;;;15.36;100.00
30554;BME280;17335;50.720;7.452;2022-09-09T00:42:25;98686.00;;;15.38;100.00
30554;BME280;17335;50.720;7.452;2022-09-09T00:44:59;98690.50;;;15.31;100.00
30554;BME280;17335;50.720;7.452;2022-09-09T00:47:44;98686.91;;;15.24;100.00
30554;BME280;17335;50.720;7.452;2022-09-09T00:56:33;98681.66;;;15.23;100.00
30554;BME280;17335;50.720;7.452;2022-09-09T01:01:38;98690.16;;;15.19;100.00
30554;BME280;17335;50.720;7.452;2022-09-09T01:04:16;98691.28;;;15.25;100.00
30554;BME280;17335;50.720;7.452;2022-09-09T01:06:51;98691.00;;;15.20;100.00
30554;BME280;17335;50.720;7.452;2022-09-09T01:09:32;98694.75;;;15.19;100.00
30554;BME280;17335;50.720;7.452;2022-09-09T01:12:09;98698.00;;;15.14;100.00
30554;BME280;17335;50.720;7.452;2022-09-09T01:14:48;98697.53;;;15.11;100.00
30554;BME280;17335;50.720;7.452;2022-09-09T01:17:26;98690.22;;;15.05;100.00
30554;BME280;17335;50.720;7.452;2022-09-09T01:20:29;98694.19;;;15.09;100.00
30554;BME280;17335;50.720;7.452;2022-09-09T01:26:15;98694.91;;;14.96;100.00
30554;BME280;17335;50.720;7.452;2022-09-09T01:28:47;98693.66;;;14.98;100.00
30554;BME280;17335;50.720;7.452;2022-09-09T01:34:25;98695.44;;;14.91;100.00
30554;BME280;17335;50.720;7.452;2022-09-09T01:37:06;98698.53;;;14.88;100.00
30554;BME280;17335;50.720;7.452;2022-09-09T01:39:34;98695.44;;;14.91;100.00
30554;BME280;17335;50.720;7.452;2022-09-09T01:42:02;98684.81;;;14.90;100.00
30554;BME280;17335;50.720;7.452;2022-09-09T01:44:30;98689.03;;;14.92;100.00
30554;BME280;17335;50.720;7.452;2022-09-09T01:46:57;98691.91;;;14.91;100.00
30554;BME280;17335;50.720;7.452;2022-09-09T01:49:23;98692.47;;;15.01;100.00
30554;BME280;17335;50.720;7.452;2022-09-09T01:51:53;98685.56;;;14.98;100.00
30554;BME280;17335;50.720;7.452;2022-09-09T01:54:21;98695.53;;;14.98;100.00
30554;BME280;17335;50.720;7.452;2022-09-09T01:56:59;98701.41;;;15.02;100.00
30554;BME280;17335;50.720;7.452;2022-09-09T02:04:44;98696.25;;;15.22;100.00
30554;BME280;17335;50.720;7.452;2022-09-09T02:10:21;98692.38;;;15.31;100.00
30554;BME280;17335;50.720;7.452;2022-09-09T02:12:53;98700.78;;;15.21;100.00
30554;BME280;17335;50.720;7.452;2022-09-09T02:15:29;98697.72;;;15.24;100.00
30554;BME280;17335;50.720;7.452;2022-09-09T02:17:57;98685.09;;;15.31;100.00
30554;BME280;17335;50.720;7.452;2022-09-09T02:20:25;98694.88;;;15.32;100.00
30554;BME280;17335;50.720;7.452;2022-09-09T02:22:59;98698.03;;;15.36;100.00
30554;BME280;17335;50.720;7.452;2022-09-09T02:25:28;98702.00;;;15.33;100.00
30554;BME280;17335;50.720;7.452;2022-09-09T02:27:56;98708.78;;;15.29;100.00
30554;BME280;17335;50.720;7.452;2022-09-09T02:30:28;98700.31;;;15.32;100.00
30554;BME280;17335;50.720;7.452;2022-09-09T02:32:58;98700.75;;;15.36;100.00
30554;BME280;17335;50.720;7.452;2022-09-09T02:35:29;98703.00;;;15.32;100.00
30554;BME280;17335;50.720;7.452;2022-09-09T02:37:59;98699.47;;;15.32;100.00
30554;BME280;17335;50.720;7.452;2022-09-09T02:40:27;98703.94;;;15.25;100.00
30554;BME280;17335;50.720;7.452;2022-09-09T02:42:54;98699.88;;;15.14;100.00
30554;BME280;17335;50.720;7.452;2022-09-09T02:45:27;98696.25;;;15.07;100.00
30554;BME280;17335;50.720;7.452;2022-09-09T02:50:29;98688.16;;;15.07;100.00
30554;BME280;17335;50.720;7.452;2022-09-09T02:53:16;98687.50;;;15.05;100.00
30554;BME280;17335;50.720;7.452;2022-09-09T02:56:05;98692.38;;;14.94;100.00
30554;BME280;17335;50.720;7.452;2022-09-09T02:58:36;98689.94;;;14.99;100.00
30554;BME280;17335;50.720;7.452;2022-09-09T03:01:03;98695.25;;;14.93;100.00
30554;BME280;17335;50.720;7.452;2022-09-09T03:03:29;98692.75;;;14.91;100.00
30554;BME280;17335;50.720;7.452;2022-09-09T03:05:56;98689.59;;;14.88;100.00
30554;BME280;17335;50.720;7.452;2022-09-09T03:08:23;98694.81;;;14.89;100.00
30554;BME280;17335;50.720;7.452;2022-09-09T03:10:50;98688.16;;;14.92;100.00
30554;BME280;17335;50.720;7.452;2022-09-09T03:13:16;98682.84;;;14.98;100.00
30554;BME280;17335;50.720;7.452;2022-09-09T03:15:45;98688.91;;;15.00;100.00
30554;BME280;17335;50.720;7.452;2022-09-09T03:18:11;98682.94;;;15.05;100.00
30554;BME280;17335;50.720;7.452;2022-09-09T03:20:38;98675.09;;;15.10;100.00
30554;BME280;17335;50.720;7.452;2022-09-09T03:23:04;98680.50;;;15.10;100.00
30554;BME280;17335;50.720;7.452;2022-09-09T03:25:31;98674.34;;;15.16;100.00
30554;BME280;17335;50.720;7.452;2022-09-09T03:27:58;98693.25;;;15.16;100.00
30554;BME280;17335;50.720;7.452;2022-09-09T03:30:26;98689.69;;;15.16;100.00
30554;BME280;17335;50.720;7.452;2022-09-09T03:32:54;98689.69;;;15.16;100.00
30554;BME280;17335;50.720;7.452;2022-09-09T03:35:21;98695.97;;;15.16;100.00
30554;BME280;17335;50.720;7.452;2022-09-09T03:37:47;98690.16;;;15.19;100.00
30554;BME280;17335;50.720;7.452;2022-09-09T03:40:14;98699.78;;;15.22;100.00
30554;BME280;17335;50.720;7.452;2022-09-09T03:42:40;98698.53;;;15.25;100.00
30554;BME280;17335;50.720;7.452;2022-09-09T03:45:08;98696.69;;;15.25;100.00
30554;BME280;17335;50.720;7.452;2022-09-09T03:47:36;98698.94;;;15.22;100.00
30554;BME280;17335;50.720;7.452;2022-09-09T03:50:13;98696.06;;;15.23;100.00
30554;BME280;17335;50.720;7.452;2022-09-09T03:52:41;98693.22;;;15.31;100.00
30554;BME280;17335;50.720;7.452;2022-09-09T03:55:08;98688.19;;;15.28;100.00
30554;BME280;17335;50.720;7.452;2022-09-09T03:57:35;98695.28;;;15.29;100.00
30554;BME280;17335;50.720;7.452;2022-09-09T04:00:06;98698.34;;;15.26;100.00
30554;BME280;17335;50.720;7.452;2022-09-09T04:02:33;98697.91;;;15.23;100.00
30554;BME280;17335;50.720;7.452;2022-09-09T04:05:00;98691.84;;;15.21;100.00
30554;BME280;17335;50.720;7.452;2022-09-09T04:07:27;98689.78;;;15.23;100.00
30554;BME280;17335;50.720;7.452;2022-09-09T04:09:54;98683.38;;;15.24;100.00
30554;BME280;17335;50.720;7.452;2022-09-09T04:12:21;98680.47;;;15.25;100.00
30554;BME280;17335;50.720;7.452;2022-09-09T04:14:49;98683.16;;;15.25;100.00
30554;BME280;17335;50.720;7.452;2022-09-09T04:17:16;98680.66;;;15.24;100.00
30554;BME280;17335;50.720;7.452;2022-09-09T04:19:43;98679.41;;;15.26;100.00
30554;BME280;17335;50.720;7.452;2022-09-09T04:22:09;98676.06;;;15.24;100.00
30554;BME280;17335;50.720;7.452;2022-09-09T04:24:36;98684.19;;;15.24;100.00
30554;BME280;17335;50.720;7.452;2022-09-09T04:27:02;98684.38;;;15.23;100.00
30554;BME280;17335;50.720;7.452;2022-09-09T04:29:29;98687.94;;;15.23;100.00
30554;BME280;17335;50.720;7.452;2022-09-09T04:31:55;98691.84;;;15.21;100.00
30554;BME280;17335;50.720;7.452;2022-09-09T04:34:22;98692.88;;;15.19;100.00
30554;BME280;17335;50.720;7.452;2022-09-09T04:36:49;98696.44;;;15.20;100.00
30554;BME280;17335;50.720;7.452;2022-09-09T04:39:18;98700.59;;;15.23;100.00
30554;BME280;17335;50.720;7.452;2022-09-09T04:41:45;98698.28;;;15.19;100.00
30554;BME280;17335;50.720;7.452;2022-09-09T04:44:13;98698.09;;;15.21;100.00
30554;BME280;17335;50.720;7.452;2022-09-09T04:46:39;98701.84;;;15.20;100.00
30554;BME280;17335;50.720;7.452;2022-09-09T04:49:08;98705.75;;;15.17;100.00
30554;BME280;17335;50.720;7.452;2022-09-09T04:51:40;98705.19;;;15.22;100.00
30554;BME280;17335;50.720;7.452;2022-09-09T04:54:06;98712.66;;;15.20;100.00
30554;BME280;17335;50.720;7.452;2022-09-09T04:56:33;98715.72;;;15.17;100.00
30554;BME280;17335;50.720;7.452;2022-09-09T04:59:00;98711.34;;;15.16;100.00
30554;BME280;17335;50.720;7.452;2022-09-09T05:01:29;98723.00;;;15.16;100.00
30554;BME280;17335;50.720;7.452;2022-09-09T05:03:55;98720.13;;;15.18;100.00
30554;BME280;17335;50.720;7.452;2022-09-09T05:06:22;98714.72;;;15.18;100.00
30554;BME280;17335;50.720;7.452;2022-09-09T05:08:49;98719.72;;;15.21;100.00
30554;BME280;17335;50.720;7.452;2022-09-09T05:11:19;98720.75;;;15.20;100.00
30554;BME280;17335;50.720;7.452;2022-09-09T05:13:46;98722.75;;;15.33;100.00
30554;BME280;17335;50.720;7.452;2022-09-09T05:16:14;98717.16;;;15.34;100.00
30554;BME280;17335;50.720;7.452;2022-09-09T05:18:41;98718.59;;;15.30;100.00
30554;BME280;17335;50.720;7.452;2022-09-09T05:21:10;98719.88;;;15.34;100.00
30554;BME280;17335;50.720;7.452;2022-09-09T05:23:38;98723.22;;;15.36;100.00
30554;BME280;17335;50.720;7.452;2022-09-09T05:26:05;98718.66;;;15.37;100.00
30554;BME280;17335;50.720;7.452;2022-09-09T05:28:33;98705.97;;;15.37;100.00
30554;BME280;17335;50.720;7.452;2022-09-09T05:31:09;98709.13;;;15.41;100.00
30554;BME280;17335;50.720;7.452;2022-09-09T05:33:37;98703.28;;;15.37;100.00
30554;BME280;17335;50.720;7.452;2022-09-09T05:36:08;98713.72;;;15.41;100.00
30554;BME280;17335;50.720;7.452;2022-09-09T05:38:37;98715.00;;;15.45;100.00
30554;BME280;17335;50.720;7.452;2022-09-09T05:41:05;98713.31;;;15.44;100.00
30554;BME280;17335;50.720;7.452;2022-09-09T05:43:31;98716.00;;;15.44;100.00
30554;BME280;17335;50.720;7.452;2022-09-09T05:48:34;98706.25;;;15.43;100.00
30554;BME280;17335;50.720;7.452;2022-09-09T05:51:02;98698.75;;;15.45;100.00
30554;BME280;17335;50.720;7.452;2022-09-09T05:53:29;98709.97;;;15.42;100.00
30554;BME280;17335;50.720;7.452;2022-09-09T05:58:32;98710.41;;;15.45;100.00
30554;BME280;17335;50.720;7.452;2022-09-09T06:03:40;98711.66;;;15.64;100.00
30554;BME280;17335;50.720;7.452;2022-09-09T06:06:10;98708.56;;;15.67;100.00
30554;BME280;17335;50.720;7.452;2022-09-09T06:08:39;98710.78;;;15.79;100.00
30554;BME280;17335;50.720;7.452;2022-09-09T06:11:08;98702.03;;;15.77;100.00
30554;BME280;17335;50.720;7.452;2022-09-09T06:13:36;98696.66;;;15.83;100.00
30554;BME280;17335;50.720;7.452;2022-09-09T06:16:07;98693.94;;;15.83;100.00
30554;BME280;17335;50.720;7.452;2022-09-09T06:18:34;98694.19;;;15.88;100.00
30554;BME280;17335;50.720;7.452;2022-09-09T06:21:03;98693.44;;;15.94;100.00
30554;BME280;17335;50.720;7.452;2022-09-09T06:23:30;98696.59;;;15.98;100.00
30554;BME280;17335;50.720;7.452;2022-09-09T06:26:21;98690.00;;;16.07;100.00
30554;BME280;17335;50.720;7.452;2022-09-09T06:28:49;98695.69;;;16.12;100.00
30554;BME280;17335;50.720;7.452;2022-09-09T06:31:19;98688.81;;;16.17;100.00
30554;BME280;17335;50.720;7.452;2022-09-09T06:33:53;98682.78;;;16.15;100.00
30554;BME280;17335;50.720;7.452;2022-09-09T06:36:27;98685.28;;;16.16;100.00
30554;BME280;17335;50.720;7.452;2022-09-09T06:38:53;98689.22;;;16.13;100.00
30554;BME280;17335;50.720;7.452;2022-09-09T06:41:21;98698.13;;;16.07;100.00
30554;BME280;17335;50.720;7.452;2022-09-09T06:43:48;98695.38;;;16.01;100.00
30554;BME280;17335;50.720;7.452;2022-09-09T06:48:43;98700.09;;;15.92;100.00
30554;BME280;17335;50.720;7.452;2022-09-09T06:51:15;98701.03;;;15.84;100.00
30554;BME280;17335;50.720;7.452;2022-09-09T06:53:43;98717.47;;;15.83;100.00
30554;BME280;17335;50.720;7.452;2022-09-09T06:58:43;98709.63;;;15.88;100.00
30554;BME280;17335;50.720;7.452;2022-09-09T07:01:13;98712.13;;;15.89;100.00
30554;BME280;17335;50.720;7.452;2022-09-09T07:03:41;98710.50;;;15.95;100.00
30554;BME280;17335;50.720;7.452;2022-09-09T07:06:34;98702.25;;;16.03;100.00
30554;BME280;17335;50.720;7.452;2022-09-09T07:09:05;98699.59;;;16.10;100.00
30554;BME280;17335;50.720;7.452;2022-09-09T07:11:34;98704.44;;;16.15;100.00
30554;BME280;17335;50.720;7.452;2022-09-09T07:14:03;98696.13;;;16.23;100.00
30554;BME280;17335;50.720;7.452;2022-09-09T07:16:30;98696.88;;;16.38;100.00
30554;BME280;17335;50.720;7.452;2022-09-09T07:18:59;98696.69;;;16.40;100.00
30554;BME280;17335;50.720;7.452;2022-09-09T07:21:28;98686.69;;;16.40;100.00
30554;BME280;17335;50.720;7.452;2022-09-09T07:23:55;98679.88;;;16.51;100.00
30554;BME280;17335;50.720;7.452;2022-09-09T07:26:25;98679.06;;;16.50;100.00
30554;BME280;17335;50.720;7.452;2022-09-09T07:28:52;98680.94;;;16.57;100.00
30554;BME280;17335;50.720;7.452;2022-09-09T07:31:22;98677.41;;;16.56;100.00
30554;BME280;17335;50.720;7.452;2022-09-09T07:33:48;98677.66;;;16.61;100.00
30554;BME280;17335;50.720;7.452;2022-09-09T07:36:19;98685.38;;;16.64;100.00
30554;BME280;17335;50.720;7.452;2022-09-09T07:38:50;98687.06;;;16.72;100.00
30554;BME280;17335;50.720;7.452;2022-09-09T07:41:22;98681.69;;;16.79;100.00
30554;BME280;17335;50.720;7.452;2022-09-09T07:43:50;98680.25;;;16.83;100.00
30554;BME280;17335;50.720;7.452;2022-09-09T07:46:18;98685.75;;;16.96;100.00
30554;BME280;17335;50.720;7.452;2022-09-09T07:48:52;98682.88;;;17.04;100.00
30554;BME280;17335;50.720;7.452;2022-09-09T07:51:28;98678.72;;;17.09;100.00
30554;BME280;17335;50.720;7.452;2022-09-09T07:53:57;98684.38;;;17.20;100.00
30554;BME280;17335;50.720;7.452;2022-09-09T07:56:25;98683.41;;;17.35;100.00
30554;BME280;17335;50.720;7.452;2022-09-09T07:58:53;98692.19;;;17.50;100.00
30554;BME280;17335;50.720;7.452;2022-09-09T08:01:32;98685.34;;;17.68;100.00
30554;BME280;17335;50.720;7.452;2022-09-09T08:04:01;98674.91;;;17.85;100.00
30554;BME280;17335;50.720;7.452;2022-09-09T08:06:30;98671.78;;;17.94;100.00
30554;BME280;17335;50.720;7.452;2022-09-09T08:08:57;98682.66;;;17.94;100.00
30554;BME280;17335;50.720;7.452;2022-09-09T08:11:25;98687.88;;;18.03;100.00
30554;BME280;17335;50.720;7.452;2022-09-09T08:13:53;98686.84;;;17.90;100.00
30554;BME280;17335;50.720;7.452;2022-09-09T08:16:37;98680.59;;;17.96;100.00
30554;BME280;17335;50.720;7.452;2022-09-09T08:19:05;98679.31;;;17.99;100.00
30554;BME280;17335;50.720;7.452;2022-09-09T08:21:35;98694.34;;;18.02;100.00
30554;BME280;17335;50.720;7.452;2022-09-09T08:24:03;98689.34;;;18.12;100.00
30554;BME280;17335;50.720;7.452;2022-09-09T08:26:34;98683.50;;;18.15;100.00
30554;BME280;17335;50.720;7.452;2022-09-09T08:29:03;98685.38;;;18.21;100.00
30554;BME280;17335;50.720;7.452;2022-09-09T08:31:46;98680.09;;;18.46;100.00
30554;BME280;17335;50.720;7.452;2022-09-09T08:34:13;98681.94;;;18.66;100.00
30554;BME280;17335;50.720;7.452;2022-09-09T08:36:44;98680.03;;;18.80;100.00
30554;BME280;17335;50.720;7.452;2022-09-09T08:39:13;98676.25;;;18.81;100.00
30554;BME280;17335;50.720;7.452;2022-09-09T08:52:52;98679.16;;;18.86;100.00
30554;BME280;17335;50.720;7.452;2022-09-09T08:58:13;98680.84;;;18.93;100.00
30554;BME280;17335;50.720;7.452;2022-09-09T09:00:58;98671.22;;;18.91;100.00
30554;BME280;17335;50.720;7.452;2022-09-09T09:11:50;98686.03;;;19.40;100.00
30554;BME280;17335;50.720;7.452;2022-09-09T09:14:23;98689.72;;;19.53;100.00
30554;BME280;17335;50.720;7.452;2022-09-09T09:16:57;98682.03;;;19.49;100.00
30554;BME280;17335;50.720;7.452;2022-09-09T09:19:27;98689.06;;;19.25;100.00
30554;BME280;17335;50.720;7.452;2022-09-09T09:22:21;98695.63;;;19.11;100.00
30554;BME280;17335;50.720;7.452;2022-09-09T09:30:19;98680.81;;;20.02;100.00
30554;BME280;17335;50.720;7.452;2022-09-09T09:33:44;98677.59;;;20.12;100.00
30554;BME280;17335;50.720;7.452;2022-09-09T09:35:50;98678.09;;;20.28;100.00
30554;BME280;17335;50.720;7.452;2022-09-09T09:38:19;98688.81;;;20.22;100.00
30554;BME280;17335;50.720;7.452;2022-09-09T09:41:06;98694.81;;;20.06;100.00
30554;BME280;17335;50.720;7.452;2022-09-09T09:43:34;98694.50;;;19.96;100.00
30554;BME280;17335;50.720;7.452;2022-09-09T09:46:04;98685.53;;;19.89;100.00
30554;BME280;17335;50.720;7.452;2022-09-09T09:48:43;98690.38;;;19.86;100.00
30554;BME280;17335;50.720;7.452;2022-09-09T09:51:13;98692.44;;;19.91;100.00
30554;BME280;17335;50.720;7.452;2022-09-09T09:53:42;98690.91;;;19.70;100.00
30554;BME280;17335;50.720;7.452;2022-09-09T09:56:13;98686.59;;;19.56;100.00
30554;BME280;17335;50.720;7.452;2022-09-09T10:01:26;98692.25;;;19.54;100.00
30554;BME280;17335;50.720;7.452;2022-09-09T10:03:57;98692.75;;;19.44;100.00
30554;BME280;17335;50.720;7.452;2022-09-09T10:06:36;98690.47;;;19.35;100.00
30554;BME280;17335;50.720;7.452;2022-09-09T10:09:24;98687.25;;;19.13;100.00
30554;BME280;17335;50.720;7.452;2022-09-09T10:12:11;98685.81;;;19.10;100.00
30554;BME280;17335;50.720;7.452;2022-09-09T10:15:28;98686.19;;;19.14;100.00
30554;BME280;17335;50.720;7.452;2022-09-09T10:18:01;98685.47;;;19.32;100.00
30554;BME280;17335;50.720;7.452;2022-09-09T10:23:24;98684.75;;;19.49;100.00
30554;BME280;17335;50.720;7.452;2022-09-09T10:26:06;98676.22;;;19.39;100.00
30554;BME280;17335;50.720;7.452;2022-09-09T10:29:01;98690.41;;;19.48;100.00
30554;BME280;17335;50.720;7.452;2022-09-09T10:32:02;98683.94;;;19.42;100.00
30554;BME280;17335;50.720;7.452;2022-09-09T10:37:15;98678.13;;;19.32;100.00
30554;BME280;17335;50.720;7.452;2022-09-09T10:39:50;98681.00;;;19.44;100.00
30554;BME280;17335;50.720;7.452;2022-09-09T10:42:26;98674.72;;;19.43;100.00
30554;BME280;17335;50.720;7.452;2022-09-09T10:45:17;98677.38;;;19.57;100.00
30554;BME280;17335;50.720;7.452;2022-09-09T10:53:47;98670.28;;;19.88;100.00
30554;BME280;17335;50.720;7.452;2022-09-09T10:56:19;98677.72;;;19.99;100.00
30554;BME280;17335;50.720;7.452;2022-09-09T11:01:22;98657.81;;;20.23;100.00
30554;BME280;17335;50.720;7.452;2022-09-09T11:07:05;98651.72;;;20.65;100.00
30554;BME280;17335;50.720;7.452;2022-09-09T11:09:42;98649.03;;;20.95;100.00
30554;BME280;17335;50.720;7.452;2022-09-09T11:12:17;98636.84;;;20.98;100.00
30554;BME280;17335;50.720;7.452;2022-09-09T11:14:54;98643.91;;;20.87;100.00
30554;BME280;17335;50.720;7.452;2022-09-09T11:17:31;98647.75;;;20.42;100.00
30554;BME280;17335;50.720;7.452;2022-09-09T11:20:00;98656.56;;;20.19;100.00
30554;BME280;17335;50.720;7.452;2022-09-09T11:22:39;98650.72;;;20.16;100.00
30554;BME280;17335;50.720;7.452;2022-09-09T11:25:41;98646.91;;;20.23;100.00
30554;BME280;17335;50.720;7.452;2022-09-09T11:38:59;98640.88;;;20.58;100.00
30554;BME280;17335;50.720;7.452;2022-09-09T11:41:34;98636.78;;;20.68;100.00
30554;BME280;17335;50.720;7.452;2022-09-09T11:44:16;98640.19;;;20.82;100.00
30554;BME280;17335;50.720;7.452;2022-09-09T11:46:46;98643.91;;;20.87;100.00
30554;BME280;17335;50.720;7.452;2022-09-09T11:49:29;98644.38;;;20.84;100.00
30554;BME280;17335;50.720;7.452;2022-09-09T11:52:18;98648.44;;;20.75;100.00
30554;BME280;17335;50.720;7.452;2022-09-09T11:54:48;98648.50;;;20.50;100.00
30554;BME280;17335;50.720;7.452;2022-09-09T11:57:31;98648.25;;;20.33;100.00
30554;BME280;17335;50.720;7.452;2022-09-09T11:59:58;98651.78;;;20.58;100.00
30554;BME280;17335;50.720;7.452;2022-09-09T12:02:27;98643.34;;;20.97;100.00
30554;BME280;17335;50.720;7.452;2022-09-09T12:05:08;98631.59;;;21.15;100.00
30554;BME280;17335;50.720;7.452;2022-09-09T12:07:39;98641.16;;;21.06;100.00
30554;BME280;17335;50.720;7.452;2022-09-09T12:10:32;98642.22;;;21.05;100.00
30554;BME280;17335;50.720;7.452;2022-09-09T12:13:20;98629.31;;;21.42;100.00
30554;BME280;17335;50.720;7.452;2022-09-09T12:15:50;98626.28;;;21.62;100.00
30554;BME280;17335;50.720;7.452;2022-09-09T12:18:32;98622.44;;;21.82;100.00
30554;BME280;17335;50.720;7.452;2022-09-09T12:21:27;98618.03;;;22.04;100.00
30554;BME280;17335;50.720;7.452;2022-09-09T12:24:21;98617.06;;;22.22;100.00
30554;BME280;17335;50.720;7.452;2022-09-09T12:29:38;98621.22;;;21.78;100.00
30554;BME280;17335;50.720;7.452;2022-09-09T12:32:15;98629.50;;;21.59;100.00
30554;BME280;17335;50.720;7.452;2022-09-09T12:34:58;98626.91;;;21.34;100.00
30554;BME280;17335;50.720;7.452;2022-09-09T12:37:34;98633.72;;;21.13;100.00
30554;BME280;17335;50.720;7.452;2022-09-09T12:40:05;98625.84;;;21.05;100.00
30554;BME280;17335;50.720;7.452;2022-09-09T12:42:32;98619.16;;;21.01;100.00
30554;BME280;17335;50.720;7.452;2022-09-09T12:45:19;98610.38;;;20.98;100.00
30554;BME280;17335;50.720;7.452;2022-09-09T12:47:54;98621.25;;;20.87;100.00
30554;BME280;17335;50.720;7.452;2022-09-09T12:50:25;98621.59;;;20.78;100.00
30554;BME280;17335;50.720;7.452;2022-09-09T12:52:55;98617.47;;;20.69;100.00
30554;BME280;17335;50.720;7.452;2022-09-09T12:55:31;98616.19;;;20.72;100.00
30554;BME280;17335;50.720;7.452;2022-09-09T12:58:01;98615.97;;;20.73;100.00
30554;BME280;17335;50.720;7.452;2022-09-09T13:00:33;98613.34;;;20.67;100.00
30554;BME280;17335;50.720;7.452;2022-09-09T13:03:03;98609.81;;;20.78;100.00
30554;BME280;17335;50.720;7.452;2022-09-09T13:05:40;98603.00;;;20.87;100.00
30554;BME280;17335;50.720;7.452;2022-09-09T13:08:09;98602.53;;;20.90;100.00
30554;BME280;17335;50.720;7.452;2022-09-09T13:13:23;98593.44;;;20.78;100.00
30554;BME280;17335;50.720;7.452;2022-09-09T13:15:59;98603.75;;;20.76;100.00
30554;BME280;17335;50.720;7.452;2022-09-09T13:18:28;98596.63;;;20.75;100.00
30554;BME280;17335;50.720;7.452;2022-09-09T13:20:56;98596.78;;;20.61;100.00
30554;BME280;17335;50.720;7.452;2022-09-09T13:23:30;98588.59;;;20.61;100.00
30554;BME280;17335;50.720;7.452;2022-09-09T13:26:00;98589.97;;;20.52;100.00
30554;BME280;17335;50.720;7.452;2022-09-09T13:28:29;98589.22;;;20.45;100.00
30554;BME280;17335;50.720;7.452;2022-09-09T13:31:02;98581.31;;;20.37;100.00
30554;BME280;17335;50.720;7.452;2022-09-09T13:33:34;98570.41;;;20.37;100.00
30554;BME280;17335;50.720;7.452;2022-09-09T13:36:08;98580.44;;;20.43;100.00
30554;BME280;17335;50.720;7.452;2022-09-09T13:41:19;98577.56;;;20.38;100.00
30554;BME280;17335;50.720;7.452;2022-09-09T13:43:47;98583.31;;;20.30;100.00
30554;BME280;17335;50.720;7.452;2022-09-09T13:51:41;98618.19;;;19.45;100.00
30554;BME280;17335;50.720;7.452;2022-09-09T13:54:10;98631.69;;;19.27;100.00
30554;BME280;17335;50.720;7.452;2022-09-09T13:56:38;98629.75;;;19.02;100.00
30554;BME280;17335;50.720;7.452;2022-09-09T13:59:09;98632.75;;;18.81;100.00
30554;BME280;17335;50.720;7.452;2022-09-09T14:01:36;98637.63;;;18.65;100.00
30554;BME280;17335;50.720;7.452;2022-09-09T14:04:06;98650.19;;;18.53;100.00
30554;BME280;17335;50.720;7.452;2022-09-09T14:06:34;98670.06;;;18.47;100.00
30554;BME280;17335;50.720;7.452;2022-09-09T14:09:04;98670.72;;;18.22;100.00
30554;BME280;17335;50.720;7.452;2022-09-09T14:11:31;98658.63;;;18.05;100.00
30554;BME280;17335;50.720;7.452;2022-09-09T14:13:57;98664.06;;;17.98;100.00
30554;BME280;17335;50.720;7.452;2022-09-09T14:16:24;98667.19;;;18.02;100.00
30554;BME280;17335;50.720;7.452;2022-09-09T14:18:52;98662.63;;;18.09;100.00
30554;BME280;17335;50.720;7.452;2022-09-09T14:21:18;98667.59;;;18.18;100.00
30554;BME280;17335;50.720;7.452;2022-09-09T14:23:45;98660.31;;;18.19;100.00
30554;BME280;17335;50.720;7.452;2022-09-09T14:26:11;98659.22;;;18.40;100.00
30554;BME280;17335;50.720;7.452;2022-09-09T14:28:39;98654.13;;;18.70;100.00
30554;BME280;17335;50.720;7.452;2022-09-09T14:31:23;98654.28;;;18.89;100.00
30554;BME280;17335;50.720;7.452;2022-09-09T14:33:50;98654.78;;;19.18;100.00
30554;BME280;17335;50.720;7.452;2022-09-09T14:36:19;98657.47;;;19.24;100.00
30554;BME280;17335;50.720;7.452;2022-09-09T14:38:45;98656.00;;;19.22;100.00
30554;BME280;17335;50.720;7.452;2022-09-09T14:41:15;98647.41;;;19.25;100.00
30554;BME280;17335;50.720;7.452;2022-09-09T14:43:46;98644.19;;;19.41;100.00
30554;BME280;17335;50.720;7.452;2022-09-09T14:46:16;98636.19;;;19.46;100.00
30554;BME280;17335;50.720;7.452;2022-09-09T14:48:43;98633.13;;;19.36;100.00
30554;BME280;17335;50.720;7.452;2022-09-09T14:53:44;98637.31;;;19.32;100.00
30554;BME280;17335;50.720;7.452;2022-09-09T14:56:17;98631.25;;;19.30;100.00
30554;BME280;17335;50.720;7.452;2022-09-09T14:58:44;98630.09;;;19.13;100.00
30554;BME280;17335;50.720;7.452;2022-09-09T15:01:13;98621.59;;;19.02;100.00
30554;BME280;17335;50.720;7.452;2022-09-09T15:03:41;98635.25;;;18.89;100.00
30554;BME280;17335;50.720;7.452;2022-09-09T15:06:11;98636.94;;;18.83;100.00
30554;BME280;17335;50.720;7.452;2022-09-09T15:08:40;98640.75;;;18.62;100.00
30554;BME280;17335;50.720;7.452;2022-09-09T15:11:09;98645.41;;;18.55;100.00
30554;BME280;17335;50.720;7.452;2022-09-09T15:13:37;98647.06;;;18.43;100.00